sensor_id;sensor_type;location;lat;lon;timestamp;noise_LAeq;noise_LA_min;noise_LA_max;noise_LA01;noise_LA95
48148;Laerm;29352;48.708;9.290;2023-07-29T00:01:35;49.30;44.31;55.69;;
48148;Laerm;29352;48.708;9.290;2023-07-29T00:04:01;49.48;43.90;54.35;;
48148;Laerm;29352;48.708;9.290;2023-07-29T00:06:27;49.64;44.69;57.81;;
48148;Laerm;29352;48.708;9.290;2023-07-29T00:08:53;49.35;44.69;62.56;;
48148;Laerm;29352;48.708;9.290;2023-07-29T00:11:18;49.46;43.90;57.61;;
48148;Laerm;29352;48.708;9.290;2023-07-29T00:13:44;49.67;41.68;54.97;;
48148;Laerm;29352;48.708;9.290;2023-07-29T00:16:09;49.40;43.44;62.54;;
48148;Laerm;29352;48.708;9.290;2023-07-29T00:18:35;49.55;43.09;52.59;;
48148;Laerm;29352;48.708;9.290;2023-07-29T00:21:01;49.76;44.31;65.38;;
48148;Laerm;29352;48.708;9.290;2023-07-29T00:23:27;49.56;43.90;52.59;;
48148;Laerm;29352;48.708;9.290;2023-07-29T00:25:52;49.69;44.69;54.19;;
48148;Laerm;29352;48.708;9.290;2023-07-29T00:28:18;49.92;45.04;52.88;;
48148;Laerm;29352;48.708;9.290;2023-07-29T00:30:43;49.94;44.31;52.95;;
48148;Laerm;29352;48.708;9.290;2023-07-29T00:33:08;49.99;44.31;53.44;;
48148;Laerm;29352;48.708;9.290;2023-07-29T00:35:35;49.96;44.31;53.19;;
48148;Laerm;29352;48.708;9.290;2023-07-29T00:38:00;49.90;44.69;52.82;;
48148;Laerm;29352;48.708;9.290;2023-07-29T00:40:28;49.83;44.31;52.93;;
48148;Laerm;29352;48.708;9.290;2023-07-29T00:42:55;50.05;43.90;53.09;;
48148;Laerm;29352;48.708;9.290;2023-07-29T00:45:20;49.99;44.31;53.58;;
48148;Laerm;29352;48.708;9.290;2023-07-29T00:47:46;50.18;44.69;53.54;;
48148;Laerm;29352;48.708;9.290;2023-07-29T00:50:15;50.04;44.31;52.98;;
48148;Laerm;29352;48.708;9.290;2023-07-29T00:52:41;49.95;43.44;53.55;;
48148;Laerm;29352;48.708;9.290;2023-07-29T00:55:08;49.67;43.44;52.65;;
48148;Laerm;29352;48.708;9.290;2023-07-29T00:57:35;49.45;42.35;52.98;;
48148;Laerm;29352;48.708;9.290;2023-07-29T01:00:01;49.40;42.35;56.50;;
48148;Laerm;29352;48.708;9.290;2023-07-29T01:02:28;49.22;40.89;52.41;;
48148;Laerm;29352;48.708;9.290;2023-07-29T01:04:58;49.31;42.93;52.65;;
48148;Laerm;29352;48.708;9.290;2023-07-29T01:07:49;49.24;42.93;52.98;;
48148;Laerm;29352;48.708;9.290;2023-07-29T01:13:44;49.23;42.93;55.17;;
48148;Laerm;29352;48.708;9.290;2023-07-29T01:16:30;49.32;44.31;53.58;;
48148;Laerm;29352;48.708;9.290;2023-07-29T01:19:05;49.75;43.44;54.23;;
48148;Laerm;29352;48.708;9.290;2023-07-29T01:21:35;49.78;44.31;54.69;;
48148;Laerm;29352;48.708;9.290;2023-07-29T01:24:02;49.52;44.31;56.71;;
48148;Laerm;29352;48.708;9.290;2023-07-29T01:26:27;49.52;42.35;53.72;;
48148;Laerm;29352;48.708;9.290;2023-07-29T01:28:56;49.47;43.90;55.01;;
48148;Laerm;29352;48.708;9.290;2023-07-29T01:31:33;49.48;43.44;52.76;;
48148;Laerm;29352;48.708;9.290;2023-07-29T01:34:17;49.61;43.90;54.43;;
48148;Laerm;29352;48.708;9.290;2023-07-29T01:36:51;49.61;43.44;53.72;;
48148;Laerm;29352;48.708;9.290;2023-07-29T01:39:22;49.60;42.93;56.20;;
48148;Laerm;29352;48.708;9.290;2023-07-29T01:41:50;49.35;42.93;53.24;;
48148;Laerm;29352;48.708;9.290;2023-07-29T01:44:18;49.42;43.44;52.47;;
48148;Laerm;29352;48.708;9.290;2023-07-29T01:46:44;49.48;43.44;52.71;;
48148;Laerm;29352;48.708;9.290;2023-07-29T01:49:10;49.61;43.90;52.53;;
48148;Laerm;29352;48.708;9.290;2023-07-29T01:51:35;49.72;44.31;58.15;;
48148;Laerm;29352;48.708;9.290;2023-07-29T01:54:01;49.79;44.69;55.17;;
48148;Laerm;29352;48.708;9.290;2023-07-29T01:56:26;49.82;43.44;56.45;;
48148;Laerm;29352;48.708;9.290;2023-07-29T01:58:52;50.05;44.69;56.38;;
48148;Laerm;29352;48.708;9.290;2023-07-29T02:01:17;49.94;45.36;58.03;;
48148;Laerm;29352;48.708;9.290;2023-07-29T02:03:43;49.80;43.90;53.63;;
48148;Laerm;29352;48.708;9.290;2023-07-29T02:06:08;49.93;44.69;53.77;;
48148;Laerm;29352;48.708;9.290;2023-07-29T02:08:34;49.88;42.35;53.19;;
48148;Laerm;29352;48.708;9.290;2023-07-29T02:11:00;49.81;45.01;53.14;;
48148;Laerm;29352;48.708;9.290;2023-07-29T02:13:25;49.72;43.90;53.68;;
48148;Laerm;29352;48.708;9.290;2023-07-29T02:15:51;49.78;44.31;53.39;;
48148;Laerm;29352;48.708;9.290;2023-07-29T02:18:17;49.79;45.36;52.76;;
48148;Laerm;29352;48.708;9.290;2023-07-29T02:20:42;49.82;43.90;54.03;;
48148;Laerm;29352;48.708;9.290;2023-07-29T02:23:14;49.78;45.36;53.14;;
48148;Laerm;29352;48.708;9.290;2023-07-29T02:25:40;49.85;45.04;70.22;;
48148;Laerm;29352;48.708;9.290;2023-07-29T02:28:06;49.60;44.31;53.77;;
48148;Laerm;29352;48.708;9.290;2023-07-29T02:30:31;49.68;45.04;53.90;;
48148;Laerm;29352;48.708;9.290;2023-07-29T02:32:56;49.72;43.44;53.24;;
48148;Laerm;29352;48.708;9.290;2023-07-29T02:35:22;49.78;43.44;53.86;;
48148;Laerm;29352;48.708;9.290;2023-07-29T02:37:47;50.16;44.31;53.09;;
48148;Laerm;29352;48.708;9.290;2023-07-29T02:40:13;50.17;45.66;52.76;;
48148;Laerm;29352;48.708;9.290;2023-07-29T02:42:38;50.29;45.66;52.79;;
48148;Laerm;29352;48.708;9.290;2023-07-29T02:45:04;50.32;45.04;53.58;;
48148;Laerm;29352;48.708;9.290;2023-07-29T02:47:30;50.25;45.04;53.72;;
48148;Laerm;29352;48.708;9.290;2023-07-29T02:49:55;50.17;45.66;52.76;;
48148;Laerm;29352;48.708;9.290;2023-07-29T02:52:20;50.18;45.36;54.27;;
48148;Laerm;29352;48.708;9.290;2023-07-29T02:54:46;50.34;45.94;53.09;;
48148;Laerm;29352;48.708;9.290;2023-07-29T02:57:13;50.23;44.69;53.39;;
48148;Laerm;29352;48.708;9.290;2023-07-29T02:59:39;50.32;45.86;61.33;;
48148;Laerm;29352;48.708;9.290;2023-07-29T03:02:04;50.29;44.69;63.20;;
48148;Laerm;29352;48.708;9.290;2023-07-29T03:04:30;50.06;45.04;56.25;;
48148;Laerm;29352;48.708;9.290;2023-07-29T03:06:55;50.05;45.36;53.29;;
48148;Laerm;29352;48.708;9.290;2023-07-29T03:09:20;50.20;44.69;53.39;;
48148;Laerm;29352;48.708;9.290;2023-07-29T03:11:46;50.16;45.36;52.98;;
48148;Laerm;29352;48.708;9.290;2023-07-29T03:14:11;50.16;45.66;54.76;;
48148;Laerm;29352;48.708;9.290;2023-07-29T03:16:37;50.21;45.94;52.82;;
48148;Laerm;29352;48.708;9.290;2023-07-29T03:19:03;50.17;45.66;53.34;;
48148;Laerm;29352;48.708;9.290;2023-07-29T03:21:28;50.13;45.36;53.14;;
48148;Laerm;29352;48.708;9.290;2023-07-29T03:23:53;49.86;44.69;53.19;;
48148;Laerm;29352;48.708;9.290;2023-07-29T03:26:19;49.82;45.66;52.76;;
48148;Laerm;29352;48.708;9.290;2023-07-29T03:28:44;49.92;45.36;52.71;;
48148;Laerm;29352;48.708;9.290;2023-07-29T03:31:11;50.17;45.66;52.82;;
48148;Laerm;29352;48.708;9.290;2023-07-29T03:33:36;50.26;46.20;52.93;;
48148;Laerm;29352;48.708;9.290;2023-07-29T03:36:02;50.19;45.66;53.09;;
48148;Laerm;29352;48.708;9.290;2023-07-29T03:38:28;50.11;45.36;53.24;;
48148;Laerm;29352;48.708;9.290;2023-07-29T03:40:53;50.25;46.20;52.98;;
48148;Laerm;29352;48.708;9.290;2023-07-29T03:43:19;50.23;46.20;53.29;;
48148;Laerm;29352;48.708;9.290;2023-07-29T03:45:45;50.15;45.66;52.93;;
48148;Laerm;29352;48.708;9.290;2023-07-29T03:48:11;50.20;45.94;53.05;;
48148;Laerm;29352;48.708;9.290;2023-07-29T03:50:36;50.06;45.36;52.88;;
48148;Laerm;29352;48.708;9.290;2023-07-29T03:53:04;50.05;45.36;53.58;;
48148;Laerm;29352;48.708;9.290;2023-07-29T03:55:30;50.04;45.94;52.98;;
48148;Laerm;29352;48.708;9.290;2023-07-29T03:58:00;49.56;44.31;53.34;;
48148;Laerm;29352;48.708;9.290;2023-07-29T04:00:27;49.55;45.36;55.27;;
48148;Laerm;29352;48.708;9.290;2023-07-29T04:02:52;49.44;45.04;52.59;;
48148;Laerm;29352;48.708;9.290;2023-07-29T04:05:18;49.38;45.04;52.03;;
48148;Laerm;29352;48.708;9.290;2023-07-29T04:07:44;49.18;44.31;51.96;;
48148;Laerm;29352;48.708;9.290;2023-07-29T04:10:10;50.10;45.94;52.76;;
48148;Laerm;29352;48.708;9.290;2023-07-29T04:12:37;49.44;44.69;52.03;;
48148;Laerm;29352;48.708;9.290;2023-07-29T04:15:03;49.86;45.94;52.22;;
48148;Laerm;29352;48.708;9.290;2023-07-29T04:17:28;50.03;46.20;52.41;;
48148;Laerm;29352;48.708;9.290;2023-07-29T04:19:54;50.55;46.45;52.82;;
48148;Laerm;29352;48.708;9.290;2023-07-29T04:22:19;50.69;47.12;52.76;;
48148;Laerm;29352;48.708;9.290;2023-07-29T04:24:45;50.65;46.91;52.93;;
48148;Laerm;29352;48.708;9.290;2023-07-29T04:27:10;50.77;47.52;53.19;;
48148;Laerm;29352;48.708;9.290;2023-07-29T04:29:36;50.62;46.10;52.82;;
48148;Laerm;29352;48.708;9.290;2023-07-29T04:32:03;50.58;46.91;52.76;;
48148;Laerm;29352;48.708;9.290;2023-07-29T04:34:28;50.57;46.20;52.88;;
48148;Laerm;29352;48.708;9.290;2023-07-29T04:36:54;50.70;47.35;53.04;;
48148;Laerm;29352;48.708;9.290;2023-07-29T04:39:19;51.45;47.70;53.81;;
48148;Laerm;29352;48.708;9.290;2023-07-29T04:41:45;51.42;48.05;53.86;;
48148;Laerm;29352;48.708;9.290;2023-07-29T04:44:10;51.38;47.70;53.94;;
48148;Laerm;29352;48.708;9.290;2023-07-29T04:46:36;50.92;46.91;53.90;;
48148;Laerm;29352;48.708;9.290;2023-07-29T04:49:02;50.73;46.77;53.94;;
48148;Laerm;29352;48.708;9.290;2023-07-29T04:51:28;50.08;45.04;52.82;;
48148;Laerm;29352;48.708;9.290;2023-07-29T04:53:54;50.13;46.20;62.66;;
48148;Laerm;29352;48.708;9.290;2023-07-29T04:56:19;50.26;45.94;56.59;;
48148;Laerm;29352;48.708;9.290;2023-07-29T04:58:45;49.57;44.31;52.58;;
48148;Laerm;29352;48.708;9.290;2023-07-29T05:01:11;49.50;45.36;52.35;;
48148;Laerm;29352;48.708;9.290;2023-07-29T05:03:36;49.41;44.31;52.03;;
48148;Laerm;29352;48.708;9.290;2023-07-29T05:06:03;49.56;43.44;53.72;;
48148;Laerm;29352;48.708;9.290;2023-07-29T05:08:28;49.47;44.69;52.03;;
48148;Laerm;29352;48.708;9.290;2023-07-29T05:10:54;49.53;45.04;62.13;;
48148;Laerm;29352;48.708;9.290;2023-07-29T05:13:21;49.48;42.93;61.86;;
48148;Laerm;29352;48.708;9.290;2023-07-29T05:15:49;49.40;43.90;55.89;;
48148;Laerm;29352;48.708;9.290;2023-07-29T05:18:15;49.32;44.31;53.34;;
48148;Laerm;29352;48.708;9.290;2023-07-29T05:20:41;49.16;43.90;51.89;;
48148;Laerm;29352;48.708;9.290;2023-07-29T05:23:06;49.24;43.44;52.41;;
48148;Laerm;29352;48.708;9.290;2023-07-29T05:25:32;49.28;43.90;52.16;;
48148;Laerm;29352;48.708;9.290;2023-07-29T05:28:03;49.21;42.93;52.22;;
48148;Laerm;29352;48.708;9.290;2023-07-29T05:30:29;49.17;43.90;52.29;;
48148;Laerm;29352;48.708;9.290;2023-07-29T05:32:57;49.28;42.93;52.22;;
48148;Laerm;29352;48.708;9.290;2023-07-29T05:35:24;49.27;42.93;52.22;;
48148;Laerm;29352;48.708;9.290;2023-07-29T05:37:50;49.56;43.97;64.96;;
48148;Laerm;29352;48.708;9.290;2023-07-29T05:40:15;49.40;44.31;52.47;;
48148;Laerm;29352;48.708;9.290;2023-07-29T05:42:41;49.16;43.90;52.03;;
48148;Laerm;29352;48.708;9.290;2023-07-29T05:45:07;49.39;44.31;66.10;;
48148;Laerm;29352;48.708;9.290;2023-07-29T05:47:33;49.24;43.90;54.49;;
48148;Laerm;29352;48.708;9.290;2023-07-29T05:49:58;49.10;43.44;52.29;;
48148;Laerm;29352;48.708;9.290;2023-07-29T05:52:25;49.17;43.90;52.35;;
48148;Laerm;29352;48.708;9.290;2023-07-29T05:54:51;49.10;40.89;52.03;;
48148;Laerm;29352;48.708;9.290;2023-07-29T05:57:16;48.92;43.90;54.39;;
48148;Laerm;29352;48.708;9.290;2023-07-29T05:59:42;49.08;44.69;52.09;;
48148;Laerm;29352;48.708;9.290;2023-07-29T06:02:07;48.83;43.44;51.89;;
48148;Laerm;29352;48.708;9.290;2023-07-29T06:04:33;48.78;44.31;51.89;;
48148;Laerm;29352;48.708;9.290;2023-07-29T06:06:58;48.83;44.31;51.46;;
48148;Laerm;29352;48.708;9.290;2023-07-29T06:09:24;48.84;43.90;51.75;;
48148;Laerm;29352;48.708;9.290;2023-07-29T06:11:50;48.71;42.35;51.75;;
48148;Laerm;29352;48.708;9.290;2023-07-29T06:14:16;48.57;43.90;51.53;;
48148;Laerm;29352;48.708;9.290;2023-07-29T06:16:41;48.49;43.44;51.30;;
48148;Laerm;29352;48.708;9.290;2023-07-29T06:19:07;49.08;44.69;52.22;;
48148;Laerm;29352;48.708;9.290;2023-07-29T06:21:34;49.39;45.04;51.75;;
48148;Laerm;29352;48.708;9.290;2023-07-29T06:24:00;49.63;47.12;53.81;;
48148;Laerm;29352;48.708;9.290;2023-07-29T06:26:26;49.79;47.88;51.61;;
48148;Laerm;29352;48.708;9.290;2023-07-29T06:28:51;49.68;47.32;51.38;;
48148;Laerm;29352;48.708;9.290;2023-07-29T06:31:17;49.84;46.69;65.73;;
48148;Laerm;29352;48.708;9.290;2023-07-29T06:33:42;49.70;47.32;51.96;;
48148;Laerm;29352;48.708;9.290;2023-07-29T06:36:08;49.79;47.88;51.46;;
48148;Laerm;29352;48.708;9.290;2023-07-29T06:38:33;49.99;47.70;51.75;;
48148;Laerm;29352;48.708;9.290;2023-07-29T06:40:58;49.94;48.05;51.61;;
48148;Laerm;29352;48.708;9.290;2023-07-29T06:43:24;49.90;48.05;51.61;;
48148;Laerm;29352;48.708;9.290;2023-07-29T06:45:49;49.88;47.88;51.53;;
48148;Laerm;29352;48.708;9.290;2023-07-29T06:48:15;49.83;47.52;51.82;;
48148;Laerm;29352;48.708;9.290;2023-07-29T06:50:40;49.81;47.70;51.81;;
48148;Laerm;29352;48.708;9.290;2023-07-29T06:53:06;49.86;47.70;51.96;;
48148;Laerm;29352;48.708;9.290;2023-07-29T06:55:31;50.19;47.12;53.86;;
48148;Laerm;29352;48.708;9.290;2023-07-29T06:57:57;50.20;46.91;52.16;;
48148;Laerm;29352;48.708;9.290;2023-07-29T07:00:22;73.07;47.32;95.87;;
48148;Laerm;29352;48.708;9.290;2023-07-29T07:02:48;49.97;46.45;55.86;;
48148;Laerm;29352;48.708;9.290;2023-07-29T07:05:13;49.80;46.45;56.97;;
48148;Laerm;29352;48.708;9.290;2023-07-29T07:07:39;50.60;45.04;78.38;;
48148;Laerm;29352;48.708;9.290;2023-07-29T07:10:05;49.92;46.20;64.73;;
48148;Laerm;29352;48.708;9.290;2023-07-29T07:12:30;49.66;45.36;52.65;;
48148;Laerm;29352;48.708;9.290;2023-07-29T07:14:55;49.40;44.69;55.42;;
48148;Laerm;29352;48.708;9.290;2023-07-29T07:17:21;49.52;45.04;63.97;;
48148;Laerm;29352;48.708;9.290;2023-07-29T07:19:46;49.46;44.69;52.16;;
48148;Laerm;29352;48.708;9.290;2023-07-29T07:22:12;49.38;45.01;54.92;;
48148;Laerm;29352;48.708;9.290;2023-07-29T07:24:37;49.38;44.69;51.89;;
48148;Laerm;29352;48.708;9.290;2023-07-29T07:27:03;49.63;43.90;63.89;;
48148;Laerm;29352;48.708;9.290;2023-07-29T07:29:29;49.20;44.69;52.88;;
48148;Laerm;29352;48.708;9.290;2023-07-29T07:31:56;48.95;44.31;53.04;;
48148;Laerm;29352;48.708;9.290;2023-07-29T07:34:23;48.94;43.90;51.68;;
48148;Laerm;29352;48.708;9.290;2023-07-29T07:36:49;48.76;42.93;51.46;;
48148;Laerm;29352;48.708;9.290;2023-07-29T07:39:15;48.76;43.44;51.68;;
48148;Laerm;29352;48.708;9.290;2023-07-29T07:41:42;48.76;43.90;53.19;;
48148;Laerm;29352;48.708;9.290;2023-07-29T07:44:07;48.84;43.44;51.46;;
48148;Laerm;29352;48.708;9.290;2023-07-29T07:46:33;48.73;43.90;54.47;;
48148;Laerm;29352;48.708;9.290;2023-07-29T07:48:58;48.76;43.90;53.90;;
48148;Laerm;29352;48.708;9.290;2023-07-29T07:51:24;48.85;43.90;51.53;;
48148;Laerm;29352;48.708;9.290;2023-07-29T07:53:49;49.17;43.97;73.39;;
48148;Laerm;29352;48.708;9.290;2023-07-29T07:56:15;48.85;44.31;53.34;;
48148;Laerm;29352;48.708;9.290;2023-07-29T07:58:41;48.82;43.90;52.16;;
48148;Laerm;29352;48.708;9.290;2023-07-29T08:01:08;48.82;43.90;55.51;;
48148;Laerm;29352;48.708;9.290;2023-07-29T08:03:35;48.89;44.31;51.89;;
48148;Laerm;29352;48.708;9.290;2023-07-29T08:06:01;48.78;43.90;54.19;;
48148;Laerm;29352;48.708;9.290;2023-07-29T08:08:28;48.71;42.93;51.38;;
48148;Laerm;29352;48.708;9.290;2023-07-29T08:10:54;48.78;43.90;53.90;;
48148;Laerm;29352;48.708;9.290;2023-07-29T08:13:22;48.63;41.68;51.96;;
48148;Laerm;29352;48.708;9.290;2023-07-29T08:15:49;48.87;44.31;53.24;;
48148;Laerm;29352;48.708;9.290;2023-07-29T08:18:15;48.95;43.90;52.35;;
48148;Laerm;29352;48.708;9.290;2023-07-29T08:20:51;49.10;44.69;51.38;;
48148;Laerm;29352;48.708;9.290;2023-07-29T08:23:16;49.36;44.69;56.52;;
48148;Laerm;29352;48.708;9.290;2023-07-29T08:25:42;49.09;45.94;51.46;;
48148;Laerm;29352;48.708;9.290;2023-07-29T08:28:07;49.28;46.45;53.63;;
48148;Laerm;29352;48.708;9.290;2023-07-29T08:30:33;49.19;46.20;56.97;;
48148;Laerm;29352;48.708;9.290;2023-07-29T08:32:58;49.27;46.69;51.30;;
48148;Laerm;29352;48.708;9.290;2023-07-29T08:35:23;49.33;46.69;51.22;;
48148;Laerm;29352;48.708;9.290;2023-07-29T08:37:49;49.35;46.77;51.96;;
48148;Laerm;29352;48.708;9.290;2023-07-29T08:40:14;49.41;46.69;51.22;;
48148;Laerm;29352;48.708;9.290;2023-07-29T08:42:44;49.42;46.91;51.30;;
48148;Laerm;29352;48.708;9.290;2023-07-29T08:45:11;49.41;47.32;51.38;;
48148;Laerm;29352;48.708;9.290;2023-07-29T08:47:37;49.50;47.12;51.30;;
48148;Laerm;29352;48.708;9.290;2023-07-29T08:50:03;49.83;47.70;51.14;;
48148;Laerm;29352;48.708;9.290;2023-07-29T08:52:30;50.03;48.21;51.38;;
48148;Laerm;29352;48.708;9.290;2023-07-29T08:54:58;50.55;48.52;51.96;;
48148;Laerm;29352;48.708;9.290;2023-07-29T08:57:25;50.91;49.68;52.22;;
48148;Laerm;29352;48.708;9.290;2023-07-29T08:59:51;50.90;49.34;52.09;;
48148;Laerm;29352;48.708;9.290;2023-07-29T09:02:18;50.95;49.46;52.22;;
48148;Laerm;29352;48.708;9.290;2023-07-29T09:04:43;51.25;49.70;52.59;;
48148;Laerm;29352;48.708;9.290;2023-07-29T09:07:10;51.62;50.13;52.82;;
48148;Laerm;29352;48.708;9.290;2023-07-29T09:09:35;51.91;49.70;59.00;;
48148;Laerm;29352;48.708;9.290;2023-07-29T09:12:01;51.89;50.33;52.98;;
48148;Laerm;29352;48.708;9.290;2023-07-29T09:14:28;51.86;50.62;53.04;;
48148;Laerm;29352;48.708;9.290;2023-07-29T09:16:53;51.67;50.43;52.71;;
48148;Laerm;29352;48.708;9.290;2023-07-29T09:19:19;51.59;50.33;52.98;;
48148;Laerm;29352;48.708;9.290;2023-07-29T09:21:46;51.69;50.03;52.82;;
48148;Laerm;29352;48.708;9.290;2023-07-29T09:24:16;51.82;50.33;52.88;;
48148;Laerm;29352;48.708;9.290;2023-07-29T09:26:49;51.95;50.80;53.14;;
48148;Laerm;29352;48.708;9.290;2023-07-29T09:29:15;51.97;50.62;52.98;;
48148;Laerm;29352;48.708;9.290;2023-07-29T09:31:41;52.18;51.06;53.14;;
48148;Laerm;29352;48.708;9.290;2023-07-29T09:34:06;52.08;50.71;53.19;;
48148;Laerm;29352;48.708;9.290;2023-07-29T09:36:33;52.02;50.98;53.29;;
48148;Laerm;29352;48.708;9.290;2023-07-29T09:38:59;51.87;50.71;53.04;;
48148;Laerm;29352;48.708;9.290;2023-07-29T09:41:29;51.80;50.43;53.04;;
48148;Laerm;29352;48.708;9.290;2023-07-29T09:43:59;51.85;50.53;53.04;;
48148;Laerm;29352;48.708;9.290;2023-07-29T09:46:36;51.80;50.43;52.93;;
48148;Laerm;29352;48.708;9.290;2023-07-29T09:49:06;51.82;50.62;52.93;;
48148;Laerm;29352;48.708;9.290;2023-07-29T09:51:38;51.81;50.53;52.93;;
48148;Laerm;29352;48.708;9.290;2023-07-29T09:54:04;52.18;50.53;53.34;;
48148;Laerm;29352;48.708;9.290;2023-07-29T09:56:31;52.67;51.46;53.99;;
48148;Laerm;29352;48.708;9.290;2023-07-29T09:58:56;52.63;51.38;53.63;;
48148;Laerm;29352;48.708;9.290;2023-07-29T10:01:23;52.51;51.30;53.54;;
48148;Laerm;29352;48.708;9.290;2023-07-29T10:03:50;52.38;51.14;53.54;;
48148;Laerm;29352;48.708;9.290;2023-07-29T10:06:18;52.42;51.30;53.49;;
48148;Laerm;29352;48.708;9.290;2023-07-29T10:08:44;52.56;51.14;53.68;;
48148;Laerm;29352;48.708;9.290;2023-07-29T10:11:11;52.47;50.98;53.58;;
48148;Laerm;29352;48.708;9.290;2023-07-29T10:13:38;52.53;51.22;53.58;;
48148;Laerm;29352;48.708;9.290;2023-07-29T10:16:04;52.57;51.30;53.72;;
48148;Laerm;29352;48.708;9.290;2023-07-29T10:18:31;52.80;51.53;53.94;;
48148;Laerm;29352;48.708;9.290;2023-07-29T10:21:00;52.87;51.53;53.90;;
48148;Laerm;29352;48.708;9.290;2023-07-29T10:23:28;52.70;51.61;53.68;;
48148;Laerm;29352;48.708;9.290;2023-07-29T10:26:10;52.83;51.53;53.90;;
48148;Laerm;29352;48.708;9.290;2023-07-29T10:28:41;52.75;51.61;53.86;;
48148;Laerm;29352;48.708;9.290;2023-07-29T10:31:10;52.72;51.55;53.77;;
48148;Laerm;29352;48.708;9.290;2023-07-29T10:33:37;52.70;51.53;53.68;;
48148;Laerm;29352;48.708;9.290;2023-07-29T10:36:05;52.67;51.48;53.63;;
48148;Laerm;29352;48.708;9.290;2023-07-29T10:38:31;52.79;51.61;53.72;;
48148;Laerm;29352;48.708;9.290;2023-07-29T10:40:57;52.80;51.61;53.81;;
48148;Laerm;29352;48.708;9.290;2023-07-29T10:43:35;52.69;51.38;53.72;;
48148;Laerm;29352;48.708;9.290;2023-07-29T10:46:21;52.84;51.68;53.94;;
48148;Laerm;29352;48.708;9.290;2023-07-29T10:54:10;53.50;52.41;54.43;;
48148;Laerm;29352;48.708;9.290;2023-07-29T10:56:40;53.59;52.59;54.65;;
48148;Laerm;29352;48.708;9.290;2023-07-29T11:01:57;53.70;52.59;54.80;;
48148;Laerm;29352;48.708;9.290;2023-07-29T11:04:30;53.96;52.82;55.07;;
48148;Laerm;29352;48.708;9.290;2023-07-29T11:07:23;53.82;52.76;54.94;;
48148;Laerm;29352;48.708;9.290;2023-07-29T11:09:57;53.74;52.65;54.65;;
48148;Laerm;29352;48.708;9.290;2023-07-29T11:15:17;53.76;52.59;54.90;;
48148;Laerm;29352;48.708;9.290;2023-07-29T11:17:52;53.88;52.82;54.90;;
48148;Laerm;29352;48.708;9.290;2023-07-29T11:20:29;53.89;52.88;54.94;;
48148;Laerm;29352;48.708;9.290;2023-07-29T11:22:58;53.95;52.82;54.90;;
48148;Laerm;29352;48.708;9.290;2023-07-29T11:25:28;53.94;52.88;54.97;;
48148;Laerm;29352;48.708;9.290;2023-07-29T11:27:56;53.86;52.82;55.14;;
48148;Laerm;29352;48.708;9.290;2023-07-29T11:30:23;53.81;52.76;54.80;;
48148;Laerm;29352;48.708;9.290;2023-07-29T11:32:54;53.93;52.76;55.01;;
48148;Laerm;29352;48.708;9.290;2023-07-29T11:35:20;53.96;52.41;54.94;;
48148;Laerm;29352;48.708;9.290;2023-07-29T11:37:49;53.90;52.71;54.97;;
48148;Laerm;29352;48.708;9.290;2023-07-29T11:40:23;53.86;52.76;54.76;;
48148;Laerm;29352;48.708;9.290;2023-07-29T11:42:51;53.92;52.71;54.97;;
48148;Laerm;29352;48.708;9.290;2023-07-29T11:45:18;54.01;52.93;55.07;;
48148;Laerm;29352;48.708;9.290;2023-07-29T11:47:45;54.06;52.93;55.01;;
48148;Laerm;29352;48.708;9.290;2023-07-29T11:50:13;54.08;53.09;54.97;;
48148;Laerm;29352;48.708;9.290;2023-07-29T11:52:45;54.16;53.09;55.17;;
48148;Laerm;29352;48.708;9.290;2023-07-29T11:55:13;54.22;53.09;55.17;;
48148;Laerm;29352;48.708;9.290;2023-07-29T11:57:42;54.20;53.04;55.17;;
48148;Laerm;29352;48.708;9.290;2023-07-29T12:00:10;54.17;53.09;55.17;;
48148;Laerm;29352;48.708;9.290;2023-07-29T12:02:40;54.18;53.09;55.27;;
48148;Laerm;29352;48.708;9.290;2023-07-29T12:05:09;54.18;53.19;55.27;;
48148;Laerm;29352;48.708;9.290;2023-07-29T12:07:35;54.17;53.14;55.27;;
48148;Laerm;29352;48.708;9.290;2023-07-29T12:10:04;54.18;53.14;55.17;;
48148;Laerm;29352;48.708;9.290;2023-07-29T12:12:30;54.13;53.04;55.17;;
48148;Laerm;29352;48.708;9.290;2023-07-29T12:14:55;54.22;53.24;55.30;;
48148;Laerm;29352;48.708;9.290;2023-07-29T12:17:21;54.20;53.04;55.27;;
48148;Laerm;29352;48.708;9.290;2023-07-29T12:19:46;54.18;52.93;55.30;;
48148;Laerm;29352;48.708;9.290;2023-07-29T12:22:18;54.18;52.98;55.23;;
48148;Laerm;29352;48.708;9.290;2023-07-29T12:24:43;54.20;52.93;55.33;;
48148;Laerm;29352;48.708;9.290;2023-07-29T12:27:14;54.19;52.98;55.23;;
48148;Laerm;29352;48.708;9.290;2023-07-29T12:29:43;54.23;53.14;55.33;;
48148;Laerm;29352;48.708;9.290;2023-07-29T12:32:10;54.27;53.09;55.17;;
48148;Laerm;29352;48.708;9.290;2023-07-29T12:34:38;54.25;53.19;55.20;;
48148;Laerm;29352;48.708;9.290;2023-07-29T12:37:06;54.28;53.19;55.30;;
48148;Laerm;29352;48.708;9.290;2023-07-29T12:39:35;54.27;53.29;55.27;;
48148;Laerm;29352;48.708;9.290;2023-07-29T12:42:05;54.26;53.24;55.42;;
48148;Laerm;29352;48.708;9.290;2023-07-29T12:44:34;54.27;53.29;55.27;;
48148;Laerm;29352;48.708;9.290;2023-07-29T12:47:05;54.28;53.24;55.45;;
48148;Laerm;29352;48.708;9.290;2023-07-29T12:49:31;54.29;53.14;55.30;;
48148;Laerm;29352;48.708;9.290;2023-07-29T12:52:00;54.29;53.29;55.30;;
48148;Laerm;29352;48.708;9.290;2023-07-29T12:54:25;54.28;53.14;55.33;;
48148;Laerm;29352;48.708;9.290;2023-07-29T12:56:51;54.26;53.09;55.20;;
48148;Laerm;29352;48.708;9.290;2023-07-29T12:59:17;54.23;52.88;55.20;;
48148;Laerm;29352;48.708;9.290;2023-07-29T13:01:42;54.24;53.24;55.39;;
48148;Laerm;29352;48.708;9.290;2023-07-29T13:04:11;54.18;53.04;55.20;;
48148;Laerm;29352;48.708;9.290;2023-07-29T13:06:37;54.11;52.76;55.07;;
48148;Laerm;29352;48.708;9.290;2023-07-29T13:09:03;54.05;52.93;55.11;;
48148;Laerm;29352;48.708;9.290;2023-07-29T13:11:30;54.09;53.04;55.07;;
48148;Laerm;29352;48.708;9.290;2023-07-29T13:13:57;54.07;52.93;55.04;;
48148;Laerm;29352;48.708;9.290;2023-07-29T13:16:23;54.08;52.93;55.11;;
48148;Laerm;29352;48.708;9.290;2023-07-29T13:18:49;54.07;52.98;55.17;;
48148;Laerm;29352;48.708;9.290;2023-07-29T13:21:15;54.04;52.88;55.07;;
48148;Laerm;29352;48.708;9.290;2023-07-29T13:23:40;54.08;52.98;55.04;;
48148;Laerm;29352;48.708;9.290;2023-07-29T13:26:06;54.09;52.82;54.97;;
48148;Laerm;29352;48.708;9.290;2023-07-29T13:28:31;54.12;53.04;55.33;;
48148;Laerm;29352;48.708;9.290;2023-07-29T13:30:56;54.14;52.82;55.07;;
48148;Laerm;29352;48.708;9.290;2023-07-29T13:33:22;54.12;53.04;55.20;;
48148;Laerm;29352;48.708;9.290;2023-07-29T13:35:47;54.07;52.93;55.27;;
48148;Laerm;29352;48.708;9.290;2023-07-29T13:38:13;54.02;52.71;55.04;;
48148;Laerm;29352;48.708;9.290;2023-07-29T13:40:38;53.99;52.82;55.01;;
48148;Laerm;29352;48.708;9.290;2023-07-29T13:43:04;53.96;52.71;55.07;;
48148;Laerm;29352;48.708;9.290;2023-07-29T13:45:30;54.02;52.71;55.04;;
48148;Laerm;29352;48.708;9.290;2023-07-29T13:47:56;54.05;52.98;55.01;;
48148;Laerm;29352;48.708;9.290;2023-07-29T13:50:21;54.06;52.98;55.27;;
48148;Laerm;29352;48.708;9.290;2023-07-29T13:52:48;54.02;52.93;54.97;;
48148;Laerm;29352;48.708;9.290;2023-07-29T13:55:13;54.05;53.05;55.17;;
48148;Laerm;29352;48.708;9.290;2023-07-29T13:57:39;54.02;52.98;55.14;;